createdAt,value
2022-10-29T00:03:39.949Z,30.90
2022-10-29T00:06:16.267Z,32.30
2022-10-29T00:08:48.494Z,31.10
2022-10-29T00:11:22.138Z,32.60
2022-10-29T00:13:58.784Z,31.20
2022-10-29T00:16:38.854Z,30.60
2022-10-29T00:19:10.872Z,35.30
2022-10-29T00:21:42.833Z,31.70
2022-10-29T00:24:14.931Z,32.30
2022-10-29T00:26:49.591Z,29.40
2022-10-29T00:29:21.617Z,31.70
2022-10-29T00:31:54.027Z,30.60
2022-10-29T00:34:26.169Z,27.60
2022-10-29T00:36:58.129Z,24.50
2022-10-29T00:39:30.872Z,26.50
2022-10-29T00:42:07.602Z,30.60
2022-10-29T00:44:41.710Z,25.60
2022-10-29T00:47:24.838Z,30.50
2022-10-29T00:50:02.336Z,31.20
2022-10-29T00:52:37.676Z,24.10
2022-10-29T00:55:15.564Z,30.90
2022-10-29T00:57:51.115Z,24.40
2022-10-29T01:00:26.439Z,29.30
2022-10-29T01:02:59.188Z,29.40
2022-10-29T01:05:35.103Z,28.90
2022-10-29T01:08:08.263Z,35.00
2022-10-29T01:10:57.454Z,29.00
2022-10-29T01:13:39.478Z,30.60
2022-10-29T01:34:58.993Z,33.40
2022-10-29T01:37:41.906Z,28.70
2022-10-29T01:40:22.588Z,33.70
2022-10-29T01:42:59.350Z,32.10
2022-10-29T01:45:37.596Z,31.90
2022-10-29T01:48:13.750Z,27.80
2022-10-29T01:50:50.374Z,28.00
2022-10-29T01:53:24.061Z,34.10
2022-10-29T01:55:56.449Z,32.50
2022-10-29T01:58:32.112Z,34.30
2022-10-29T02:01:18.648Z,26.10
2022-10-29T02:04:00.417Z,31.70
2022-10-29T02:06:44.531Z,32.30
2022-10-29T02:09:23.906Z,27.40
2022-10-29T02:12:13.421Z,31.70
2022-10-29T02:14:49.323Z,30.60
2022-10-29T02:17:21.596Z,30.00
2022-10-29T02:19:53.629Z,30.80
2022-10-29T02:22:28.311Z,27.10
2022-10-29T02:25:00.811Z,29.20
2022-10-29T02:27:33.094Z,27.90
2022-10-29T02:30:06.259Z,28.00
2022-10-29T02:32:38.373Z,26.10
2022-10-29T02:35:12.001Z,27.70
2022-10-29T02:37:44.581Z,27.50
2022-10-29T02:40:19.285Z,27.00
2022-10-29T02:42:53.975Z,27.60
2022-10-29T02:45:26.309Z,30.80
2022-10-29T02:48:00.562Z,28.20
2022-10-29T02:50:32.980Z,28.10
2022-10-29T02:53:05.157Z,27.30
2022-10-29T02:55:37.363Z,29.30
2022-10-29T02:58:09.615Z,31.50
2022-10-29T03:00:41.664Z,29.50
2022-10-29T03:03:13.783Z,30.50
2022-10-29T03:05:48.944Z,29.20
2022-10-29T03:08:23.334Z,24.40
2022-10-29T03:10:55.492Z,34.40
2022-10-29T03:13:27.555Z,27.00
2022-10-29T03:16:00.099Z,26.20
2022-10-29T03:18:32.594Z,27.30
2022-10-29T03:21:05.220Z,25.90
2022-10-29T03:23:37.333Z,29.60
2022-10-29T03:26:10.754Z,27.40
2022-10-29T03:31:21.009Z,30.10
2022-10-29T03:33:53.319Z,25.60
2022-10-29T03:36:25.749Z,25.70
2022-10-29T03:38:58.080Z,26.10
2022-10-29T03:41:30.283Z,28.00
2022-10-29T03:44:02.656Z,24.80
2022-10-29T03:46:35.300Z,20.90
2022-10-29T03:49:07.562Z,21.70
2022-10-29T03:51:39.721Z,26.30
2022-10-29T03:54:11.871Z,26.30
2022-10-29T03:56:44.045Z,26.40
2022-10-29T03:59:16.364Z,26.60
2022-10-29T04:01:48.638Z,22.50
2022-10-29T04:04:20.899Z,24.70
2022-10-29T04:06:53.059Z,23.20
2022-10-29T04:09:26.671Z,25.20
2022-10-29T04:11:58.754Z,25.00
2022-10-29T04:14:31.234Z,24.50
2022-10-29T04:17:03.400Z,20.70
2022-10-29T04:19:35.879Z,22.10
2022-10-29T04:30:49.869Z,20.30
2022-10-29T04:33:22.877Z,22.60
2022-10-29T04:35:58.165Z,25.10
2022-10-29T04:38:30.848Z,20.40
2022-10-29T04:41:03.922Z,18.70
2022-10-29T04:43:36.371Z,23.20
2022-10-29T04:46:13.421Z,22.70
2022-10-29T04:48:45.693Z,20.50
2022-10-29T04:51:27.057Z,19.20
2022-10-29T04:54:05.365Z,27.00
2022-10-29T04:56:38.754Z,22.50
2022-10-29T04:59:11.390Z,25.60
2022-10-29T05:01:43.783Z,24.90
2022-10-29T05:04:16.040Z,24.10
2022-10-29T05:06:48.557Z,19.80
2022-10-29T05:09:20.676Z,20.80
2022-10-29T05:11:52.717Z,23.20
2022-10-29T05:14:24.918Z,19.40
2022-10-29T05:16:57.147Z,22.30
2022-10-29T05:19:29.218Z,22.40
2022-10-29T05:22:01.213Z,19.40
2022-10-29T05:24:33.875Z,20.90
2022-10-29T05:27:08.075Z,19.50
2022-10-29T05:29:40.326Z,19.30
2022-10-29T05:32:12.277Z,19.30
2022-10-29T05:34:44.707Z,23.70
2022-10-29T05:37:16.806Z,21.90
2022-10-29T05:39:48.753Z,23.60
2022-10-29T05:42:20.849Z,22.20
2022-10-29T05:44:52.746Z,22.70
2022-10-29T05:47:24.778Z,19.80
2022-10-29T05:49:56.642Z,23.00
2022-10-29T05:52:29.701Z,21.80
2022-10-29T05:55:01.981Z,20.90
2022-10-29T05:57:35.399Z,23.50
2022-10-29T06:00:09.689Z,22.20
2022-10-29T06:03:26.104Z,25.50
2022-10-29T06:05:58.076Z,21.90
2022-10-29T06:08:30.014Z,21.80
2022-10-29T06:11:04.752Z,21.60
2022-10-29T06:13:36.926Z,24.20
2022-10-29T06:16:56.978Z,23.90
2022-10-29T06:19:29.044Z,22.50
2022-10-29T06:22:01.421Z,23.00
2022-10-29T06:24:33.807Z,20.80
2022-10-29T06:32:07.520Z,20.50
2022-10-29T06:34:45.799Z,20.70
2022-10-29T06:37:17.850Z,20.40
2022-10-29T06:39:59.277Z,21.10
2022-10-29T06:43:13.845Z,21.40
2022-10-29T06:45:45.863Z,19.00
2022-10-29T06:48:22.099Z,20.60
2022-10-29T06:51:20.781Z,20.20
2022-10-29T06:53:55.206Z,26.00
2022-10-29T06:56:27.105Z,27.30
2022-10-29T06:58:59.043Z,19.90
2022-10-29T07:01:33.218Z,23.50
2022-10-29T07:04:08.232Z,16.60
2022-10-29T07:06:40.190Z,18.00
2022-10-29T07:09:12.106Z,17.10
2022-10-29T07:11:44.090Z,20.40
2022-10-29T07:14:17.199Z,17.00
2022-10-29T07:16:49.397Z,19.10
2022-10-29T07:19:21.574Z,18.90
2022-10-29T07:21:53.711Z,15.50
2022-10-29T07:24:26.221Z,14.20
2022-10-29T07:26:58.180Z,13.40
2022-10-29T07:29:30.406Z,15.60
2022-10-29T07:32:02.418Z,16.60
2022-10-29T07:34:34.703Z,15.10
2022-10-29T07:37:06.567Z,12.20
2022-10-29T07:39:38.484Z,11.60
2022-10-29T07:42:10.702Z,18.20
2022-10-29T07:44:42.923Z,13.80
2022-10-29T07:47:14.849Z,11.80
2022-10-29T07:49:46.953Z,10.90
2022-10-29T07:52:18.896Z,10.90
2022-10-29T07:54:50.924Z,14.60
2022-10-29T07:57:23.502Z,11.30
2022-10-29T07:59:55.658Z,9.40
2022-10-29T08:02:27.947Z,10.10
2022-10-29T08:05:00.045Z,14.60
2022-10-29T08:07:32.689Z,9.30
2022-10-29T08:10:04.750Z,10.90
2022-10-29T08:12:36.721Z,11.90
2022-10-29T08:15:10.768Z,10.80
2022-10-29T08:17:42.704Z,8.90
2022-10-29T08:20:16.236Z,12.70
2022-10-29T08:22:48.501Z,11.60
2022-10-29T08:25:21.860Z,13.20
2022-10-29T08:28:03.702Z,11.40
2022-10-29T08:30:37.098Z,10.20
2022-10-29T08:33:10.788Z,12.00
2022-10-29T08:35:43.090Z,8.00
2022-10-29T08:38:15.033Z,10.50
2022-10-29T08:41:02.364Z,10.20
2022-10-29T08:44:14.464Z,12.10
2022-10-29T08:46:50.922Z,10.20
2022-10-29T08:49:27.297Z,6.60
2022-10-29T08:52:09.186Z,6.90
2022-10-29T08:54:45.494Z,8.90
2022-10-29T08:57:20.900Z,14.50
2022-10-29T09:02:45.070Z,13.80
2022-10-29T09:05:20.535Z,8.70
2022-10-29T09:08:13.518Z,11.00
2022-10-29T09:10:54.381Z,11.50
2022-10-29T09:13:35.873Z,14.50
2022-10-29T09:16:20.138Z,11.90
2022-10-29T09:19:15.858Z,15.30
2022-10-29T09:21:57.853Z,7.70
2022-10-29T09:24:36.253Z,8.10
2022-10-29T09:27:17.014Z,10.20
2022-10-29T09:30:12.231Z,10.60
2022-10-29T09:35:39.799Z,23.00
2022-10-29T09:38:18.907Z,18.40
2022-10-29T09:40:51.263Z,10.50
2022-10-29T09:43:38.911Z,8.80
2022-10-29T09:46:22.294Z,10.40
2022-10-29T09:49:04.287Z,13.90
2022-10-29T09:51:47.478Z,8.80
2022-10-29T09:54:19.635Z,6.90
2022-10-29T09:56:55.762Z,12.90
2022-10-29T09:59:35.077Z,11.00
2022-10-29T10:02:23.980Z,11.50
2022-10-29T10:05:01.504Z,11.70
2022-10-29T10:07:33.574Z,7.90
2022-10-29T10:10:08.011Z,12.00
2022-10-29T10:12:53.081Z,13.10
2022-10-29T10:15:29.513Z,11.70
2022-10-29T10:18:03.885Z,14.20
2022-10-29T10:20:41.075Z,9.70
2022-10-29T10:23:32.156Z,11.50
2022-10-29T10:26:05.441Z,13.20
2022-10-29T10:28:37.639Z,14.20
2022-10-29T10:31:15.168Z,13.00
2022-10-29T10:33:56.220Z,10.40
2022-10-29T10:36:30.110Z,11.00
2022-10-29T10:39:02.603Z,7.60
2022-10-29T10:41:38.290Z,12.90
2022-10-29T10:44:13.735Z,10.30
2022-10-29T10:46:47.202Z,12.60
2022-10-29T10:49:25.953Z,15.10
2022-10-29T10:52:00.702Z,14.80
2022-10-29T10:54:37.931Z,16.30
2022-10-29T10:57:23.532Z,13.20
2022-10-29T11:00:04.728Z,13.20
2022-10-29T11:02:51.974Z,10.90
2022-10-29T11:05:27.615Z,11.00
2022-10-29T11:08:05.911Z,11.50
2022-10-29T11:10:45.171Z,11.00
2022-10-29T11:13:21.996Z,11.00
2022-10-29T11:15:58.685Z,12.90
2022-10-29T11:18:36.278Z,8.70
2022-10-29T11:21:15.528Z,14.30
2022-10-29T11:23:56.064Z,12.20
2022-10-29T11:26:36.376Z,12.10
2022-10-29T11:29:19.015Z,9.30
2022-10-29T11:31:59.719Z,11.40
2022-10-29T11:34:42.728Z,9.30
2022-10-29T11:37:25.306Z,9.30
2022-10-29T11:40:13.724Z,27.00
2022-10-29T11:42:48.786Z,15.90
2022-10-29T11:45:27.817Z,14.40
2022-10-29T11:48:21.967Z,12.70
2022-10-29T11:51:02.815Z,13.90
2022-10-29T11:53:55.818Z,14.20
2022-10-29T11:56:42.488Z,12.90
2022-10-29T11:59:24.127Z,10.20
2022-10-29T12:02:07.064Z,10.10
2022-10-29T12:04:45.112Z,12.30
2022-10-29T12:07:28.544Z,11.20
2022-10-29T12:10:22.945Z,11.70
2022-10-29T12:13:07.153Z,18.70
2022-10-29T12:19:04.482Z,16.40
2022-10-29T12:21:49.956Z,9.60
2022-10-29T12:24:38.056Z,15.50
2022-10-29T12:27:17.467Z,13.10
2022-10-29T12:29:59.027Z,13.00
2022-10-29T12:32:39.034Z,7.50
2022-10-29T12:35:22.377Z,12.40
2022-10-29T12:38:10.720Z,10.00
2022-10-29T12:40:45.262Z,10.70
2022-10-29T12:43:24.444Z,7.50
2022-10-29T12:46:21.034Z,9.10
2022-10-29T12:49:06.962Z,9.90
2022-10-29T12:51:49.370Z,10.50
2022-10-29T12:54:34.360Z,13.90
2022-10-29T12:57:28.941Z,13.60
2022-10-29T13:00:47.524Z,8.90
2022-10-29T13:03:54.897Z,8.20
2022-10-29T13:06:49.637Z,7.60
2022-10-29T13:09:23.565Z,9.80
2022-10-29T13:11:57.926Z,15.40
2022-10-29T13:14:43.125Z,15.90
2022-10-29T13:17:33.490Z,9.70
2022-10-29T13:20:18.981Z,7.60
2022-10-29T13:22:57.875Z,8.60
2022-10-29T13:25:54.056Z,6.70
2022-10-29T13:28:49.464Z,9.70
2022-10-29T13:31:46.704Z,18.70
2022-10-29T13:34:58.776Z,14.80
2022-10-29T13:37:52.105Z,13.90
2022-10-29T13:44:25.665Z,12.50
2022-10-29T13:47:01.233Z,10.20
2022-10-29T13:49:42.000Z,12.80
2022-10-29T13:52:19.095Z,11.00
2022-10-29T13:54:56.485Z,9.00
2022-10-29T13:57:35.774Z,21.90
2022-10-29T14:00:16.989Z,11.30
2022-10-29T14:02:58.798Z,8.20
2022-10-29T14:05:39.378Z,10.80
2022-10-29T14:08:18.160Z,13.60
2022-10-29T14:10:53.285Z,12.10
2022-10-29T14:13:32.349Z,10.50
2022-10-29T14:16:15.483Z,19.70
2022-10-29T14:18:49.104Z,12.60
2022-10-29T14:21:26.019Z,13.60
2022-10-29T14:24:00.495Z,9.00
2022-10-29T14:26:35.193Z,12.90
2022-10-29T14:29:22.667Z,11.70
2022-10-29T14:32:07.843Z,9.60
2022-10-29T14:34:41.812Z,11.80
2022-10-29T14:37:24.563Z,25.00
2022-10-29T14:39:59.600Z,18.30
2022-10-29T14:42:36.322Z,38.60
2022-10-29T14:45:18.736Z,23.50
2022-10-29T14:47:56.608Z,9.50
2022-10-29T14:50:30.560Z,11.80
2022-10-29T14:53:07.296Z,19.80
2022-10-29T14:55:47.676Z,10.60
2022-10-29T15:00:59.014Z,18.80
2022-10-29T15:03:34.989Z,10.90
2022-10-29T15:06:20.192Z,10.50
2022-10-29T15:08:59.970Z,12.50
2022-10-29T15:11:39.194Z,9.50
2022-10-29T15:17:15.240Z,17.70
2022-10-29T15:19:50.799Z,38.80
2022-10-29T15:22:31.919Z,19.20
2022-10-29T15:25:06.729Z,19.80
2022-10-29T15:27:40.508Z,14.70
2022-10-29T15:30:21.837Z,16.00
2022-10-29T15:32:59.649Z,15.50
2022-10-29T15:35:32.174Z,14.20
2022-10-29T15:38:05.049Z,23.70
2022-10-29T15:45:30.896Z,19.70
2022-10-29T15:53:33.090Z,22.40
2022-10-29T15:56:05.836Z,22.70
2022-10-29T15:58:43.273Z,16.70
2022-10-29T16:01:17.827Z,16.50
2022-10-29T16:04:15.321Z,16.90
2022-10-29T16:07:39.830Z,19.40
2022-10-29T16:19:46.613Z,22.30
2022-10-29T16:58:38.034Z,21.60
2022-10-29T17:01:17.723Z,19.20
2022-10-29T17:24:45.225Z,31.60
2022-10-29T17:27:25.610Z,29.90
2022-10-29T17:29:57.682Z,27.30
2022-10-29T17:32:36.478Z,32.60
2022-10-29T17:35:09.663Z,23.00
2022-10-29T17:37:49.560Z,24.60
2022-10-29T17:45:14.035Z,26.10
2022-10-29T17:49:17.297Z,29.70
2022-10-29T17:51:58.410Z,24.80
2022-10-29T17:54:33.927Z,26.60
2022-10-29T17:58:03.790Z,29.00
2022-10-29T18:00:35.839Z,24.00
2022-10-29T18:03:15.578Z,34.30
2022-10-29T18:05:48.796Z,25.80
2022-10-29T18:08:54.662Z,25.20
2022-10-29T18:11:27.622Z,78.30
2022-10-29T18:15:02.595Z,35.10
2022-10-29T18:17:36.654Z,30.60
2022-10-29T18:20:19.112Z,25.70
2022-10-29T18:27:13.844Z,26.30
2022-10-29T18:37:25.458Z,22.60
2022-10-29T18:39:56.209Z,25.50
2022-10-29T18:42:31.423Z,27.20
2022-10-29T18:45:00.135Z,26.90
2022-10-29T18:47:35.379Z,24.60
2022-10-29T18:50:05.114Z,23.60
2022-10-29T19:01:47.860Z,30.80
2022-10-29T19:04:16.920Z,25.90
2022-10-29T19:06:54.459Z,28.30
2022-10-29T19:09:23.377Z,36.90
2022-10-29T19:12:14.835Z,30.00
2022-10-29T19:24:56.735Z,29.00
2022-10-29T19:27:25.220Z,31.20
2022-10-29T19:29:59.428Z,32.30
2022-10-29T19:32:28.131Z,68.40
2022-10-29T19:34:56.814Z,38.40
2022-10-29T19:37:25.857Z,35.40
2022-10-29T19:39:54.672Z,29.70
2022-10-29T19:42:23.268Z,65.50
2022-10-29T19:44:55.325Z,35.00
2022-10-29T19:47:24.975Z,32.00
2022-10-29T19:49:53.506Z,35.60
2022-10-29T19:52:22.164Z,31.10
2022-10-29T19:54:50.662Z,36.50
2022-10-29T19:57:19.482Z,34.90
2022-10-29T19:59:48.949Z,38.80
2022-10-29T20:02:17.699Z,34.60
2022-10-29T20:04:46.236Z,33.60
2022-10-29T20:07:16.521Z,34.90
2022-10-29T20:09:45.069Z,32.60
2022-10-29T20:12:13.637Z,27.60
2022-10-29T20:14:43.170Z,35.30
2022-10-29T20:17:11.663Z,32.50
2022-10-29T20:19:40.090Z,36.30
2022-10-29T20:22:09.213Z,35.30
2022-10-29T20:24:37.742Z,30.40
2022-10-29T20:27:06.167Z,37.90
2022-10-29T20:29:34.692Z,30.90
2022-10-29T20:32:03.215Z,33.40
2022-10-29T20:34:31.748Z,38.90
2022-10-29T20:39:33.996Z,35.70
2022-10-29T20:42:02.669Z,31.80
2022-10-29T20:44:31.648Z,36.70
2022-10-29T20:47:00.181Z,35.60
2022-10-29T20:49:28.662Z,34.20
2022-10-29T20:51:57.340Z,35.90
2022-10-29T20:54:25.923Z,34.90
2022-10-29T20:56:55.082Z,35.90
2022-10-29T20:59:23.660Z,33.30
2022-10-29T21:01:52.347Z,36.80
2022-10-29T21:04:20.925Z,35.50
2022-10-29T21:06:50.979Z,38.90
2022-10-29T21:09:19.743Z,34.10
2022-10-29T21:11:48.276Z,33.50
2022-10-29T21:14:16.767Z,34.50
2022-10-29T21:16:45.343Z,34.00
2022-10-29T21:19:16.095Z,34.80
2022-10-29T21:21:46.959Z,30.20
2022-10-29T21:24:17.135Z,34.20
2022-10-29T21:26:45.854Z,28.90
2022-10-29T21:29:14.952Z,32.10
2022-10-29T21:31:43.527Z,30.80
2022-10-29T21:34:12.185Z,31.90
2022-10-29T21:36:40.714Z,31.10
2022-10-29T21:39:09.264Z,32.80
2022-10-29T21:41:37.841Z,33.10
2022-10-29T21:44:06.633Z,33.40
2022-10-29T21:46:35.635Z,34.80
2022-10-29T21:49:04.608Z,32.90
2022-10-29T21:51:33.291Z,32.20
2022-10-29T21:54:01.885Z,31.80
2022-10-29T21:56:30.478Z,33.20
2022-10-29T21:58:59.278Z,33.60
2022-10-29T22:01:28.147Z,33.40
2022-10-29T22:03:56.757Z,34.50
2022-10-29T22:06:25.783Z,33.70
2022-10-29T22:08:56.378Z,33.20
2022-10-29T22:11:26.637Z,33.40
2022-10-29T22:13:55.394Z,37.20
2022-10-29T22:16:23.904Z,34.20
2022-10-29T22:18:53.983Z,31.80
2022-10-29T22:21:27.596Z,38.00
2022-10-29T22:23:57.977Z,33.20
2022-10-29T22:26:29.386Z,35.50
2022-10-29T22:28:59.407Z,34.30
2022-10-29T22:31:27.951Z,38.30
2022-10-29T22:33:56.732Z,38.30
2022-10-29T22:36:27.604Z,34.60
2022-10-29T22:39:01.492Z,40.50
2022-10-29T22:41:30.347Z,41.50
2022-10-29T22:43:59.525Z,36.20
2022-10-29T22:46:29.063Z,36.10
2022-10-29T22:49:00.915Z,43.10
2022-10-29T22:51:33.598Z,38.10
2022-10-29T22:54:04.075Z,36.90
2022-10-29T22:59:02.651Z,39.60
2022-10-29T23:01:33.493Z,41.10
2022-10-29T23:04:03.532Z,34.80
2022-10-29T23:06:32.163Z,41.40
2022-10-29T23:09:01.387Z,43.70
2022-10-29T23:11:34.254Z,40.30
2022-10-29T23:14:03.269Z,41.10
2022-10-29T23:16:33.747Z,41.00
2022-10-29T23:19:05.336Z,38.20
2022-10-29T23:21:37.996Z,38.80
2022-10-29T23:24:08.908Z,39.70
2022-10-29T23:26:37.585Z,36.40
2022-10-29T23:29:06.094Z,38.20
2022-10-29T23:31:37.494Z,37.80
2022-10-29T23:34:09.844Z,34.80
2022-10-29T23:36:41.436Z,38.80
2022-10-29T23:39:12.196Z,38.60
2022-10-29T23:41:40.740Z,36.70
2022-10-29T23:44:09.280Z,44.20
2022-10-29T23:46:37.885Z,41.70
2022-10-29T23:49:06.451Z,44.00
2022-10-29T23:54:03.895Z,41.00
2022-10-29T23:56:32.469Z,34.90
2022-10-29T23:59:01.082Z,34.80
